Metar z pełnej godziny Komunikat METAR ze strony awiacja.imgw.pl Metar G00 EPKT METAR EPKT 070100Z 23007KT 3200 -SN BR SCT003 OVC006 00/00 Q1010 =